Time;durP1;ratioP1;P1;durP2;ratioP2;P2;SDS_P1;SDS_P2;PMS_P1;PMS_P2;Temp;Humidity;BMP_temperature;BMP_pressure;BME280_temperature;BME280_humidity;BME280_pressure;Samples;Min_cycle;Max_cycle;Signal;HPM_P1;HPM_P2
2021/06/16 00:01:35;;;;;;;15.85;10.68;;;;;;;12.98;69.12;99082.89;2171884;82;20941;-81
2021/06/16 00:04:36;;;;;;;14.13;10.23;;;;;;;12.95;69.19;99076.75;2235018;80;21129;-81
2021/06/16 00:07:37;;;;;;;15.58;11.48;;;;;;;12.87;69.30;99084.56;2171661;82;20952;-82
2021/06/16 00:10:38;;;;;;;90.05;15.23;;;;;;;12.83;69.51;99084.53;2234964;80;20979;-82
2021/06/16 00:13:39;;;;;;;19.98;11.60;;;;;;;12.81;69.73;99078.41;2171636;82;21024;-81
2021/06/16 00:16:42;;;;;;;39.40;12.70;;;;;;;12.82;69.88;99073.61;2234652;80;20965;-82
2021/06/16 00:19:42;;;;;;;14.78;11.90;;;;;;;12.78;69.76;99071.41;2171552;82;20960;-82
2021/06/16 00:22:44;;;;;;;19.82;13.28;;;;;;;12.81;70.00;99077.98;2234478;80;21028;-80
2021/06/16 00:25:45;;;;;;;32.15;20.60;;;;;;;12.82;69.94;99080.16;2171699;82;20929;-81
2021/06/16 00:28:46;;;;;;;15.32;11.68;;;;;;;12.82;70.09;99074.92;2234904;80;20979;-82
2021/06/16 00:31:47;;;;;;;16.93;11.35;;;;;;;12.78;70.02;99079.27;2172406;80;20949;-82
2021/06/16 00:34:48;;;;;;;40.60;11.65;;;;;;;12.74;70.11;99084.04;2170539;82;20909;-78
2021/06/16 00:37:49;;;;;;;12.45;10.45;;;;;;;12.73;70.28;99080.98;2171504;82;20925;-80
2021/06/16 00:40:50;;;;;;;12.20;10.18;;;;;;;12.73;70.31;99083.59;2171615;82;20932;-82
2021/06/16 00:43:51;;;;;;;14.98;10.72;;;;;;;12.68;70.33;99084.88;2171054;82;21055;-82
2021/06/16 00:46:53;;;;;;;12.37;10.67;;;;;;;12.65;70.41;99085.28;2171498;82;20996;-82
2021/06/16 00:49:54;;;;;;;14.60;10.10;;;;;;;12.63;70.49;99093.13;2171346;82;21028;-81
2021/06/16 00:52:55;;;;;;;14.83;10.23;;;;;;;12.61;70.50;99096.17;2171000;82;21001;-81
2021/06/16 00:55:56;;;;;;;21.00;11.37;;;;;;;12.55;70.47;99090.88;2170827;82;20969;-81
2021/06/16 00:58:57;;;;;;;15.13;10.40;;;;;;;12.61;71.21;99097.91;2171168;82;20981;-82
2021/06/16 01:01:58;;;;;;;18.27;10.90;;;;;;;12.60;70.77;99094.41;2171450;82;20936;-81
2021/06/16 01:04:59;;;;;;;14.05;10.18;;;;;;;12.52;70.66;99092.60;2171344;82;20928;-82
2021/06/16 01:08:00;;;;;;;15.25;10.58;;;;;;;12.45;70.81;99096.91;2171021;82;20944;-81
2021/06/16 01:11:01;;;;;;;13.95;11.80;;;;;;;12.34;70.84;99094.63;2171313;82;21028;-82
2021/06/16 01:14:02;;;;;;;14.28;10.40;;;;;;;12.33;71.17;99092.88;2171230;81;20988;-82
2021/06/16 01:17:03;;;;;;;14.20;10.28;;;;;;;12.31;71.38;99087.63;2171705;82;20933;-82
2021/06/16 01:20:04;;;;;;;15.08;11.53;;;;;;;12.33;70.97;99082.41;2171711;82;20897;-83
2021/06/16 01:23:07;;;;;;;13.27;10.83;;;;;;;12.30;71.18;99085.00;2170961;82;21040;-81
2021/06/16 01:26:08;;;;;;;15.15;11.00;;;;;;;12.28;71.37;99086.30;2171302;82;21000;-81
2021/06/16 01:32:12;;;;;;;159.70;24.17;;;;;;;12.26;71.25;99084.53;2148442;82;21471;-82
2021/06/16 01:35:13;;;;;;;13.75;10.88;;;;;;;12.23;71.34;99084.07;2170686;82;20988;-81
2021/06/16 01:38:14;;;;;;;199.17;22.40;;;;;;;12.16;71.28;99081.39;2171089;82;20932;-83
2021/06/16 01:41:15;;;;;;;38.80;30.25;;;;;;;12.06;71.39;99079.95;2171439;82;20977;-81
2021/06/16 01:44:16;;;;;;;87.33;59.83;;;;;;;12.04;71.51;99082.99;2171120;82;21000;-82
2021/06/16 01:47:17;;;;;;;17.35;13.98;;;;;;;12.04;71.73;99074.27;2171277;82;20945;-81
2021/06/16 01:50:18;;;;;;;17.87;11.20;;;;;;;12.00;71.81;99073.36;2171062;82;20952;-81
2021/06/16 01:53:19;;;;;;;151.10;21.83;;;;;;;11.97;71.78;99079.87;2170987;82;20928;-82
2021/06/16 01:56:20;;;;;;;20.97;11.00;;;;;;;12.00;72.09;99083.82;2171505;82;20961;-82
2021/06/16 01:59:21;;;;;;;17.83;10.70;;;;;;;12.00;71.61;99081.64;2170784;82;20936;-81
2021/06/16 02:02:22;;;;;;;14.13;10.73;;;;;;;11.95;71.73;99080.72;2170260;82;20937;-80
2021/06/16 02:05:23;;;;;;;15.70;10.93;;;;;;;11.86;71.50;99080.19;2170275;82;20928;-80
2021/06/16 02:08:24;;;;;;;34.63;14.47;;;;;;;11.81;71.64;99080.57;2170320;82;20949;-80
2021/06/16 02:11:25;;;;;;;14.43;10.90;;;;;;;11.79;71.74;99083.61;2170208;82;20940;-80
2021/06/16 02:14:26;;;;;;;22.57;11.70;;;;;;;11.77;71.77;99078.75;2170696;82;21011;-81
2021/06/16 02:17:29;;;;;;;41.07;12.50;;;;;;;11.76;72.34;99079.61;2171470;82;20961;-80
2021/06/16 02:20:29;;;;;;;14.17;11.23;;;;;;;11.76;72.11;99087.45;2172331;82;20988;-80
2021/06/16 02:23:30;;;;;;;42.57;12.97;;;;;;;11.73;71.90;99079.58;2172104;82;21008;-79
2021/06/16 02:26:31;;;;;;;14.83;11.27;;;;;;;11.71;71.88;99081.30;2172508;82;21341;-79
2021/06/16 02:29:36;;;;;;;20.17;11.30;;;;;;;11.70;72.08;99088.70;2172746;82;21091;-79
2021/06/16 02:32:37;;;;;;;45.50;33.80;;;;;;;11.68;72.09;99086.50;2170806;80;20995;-79
2021/06/16 02:35:38;;;;;;;16.40;13.90;;;;;;;11.65;72.09;99080.80;2160999;82;21001;-80
2021/06/16 02:38:39;;;;;;;13.87;11.23;;;;;;;11.66;72.12;99082.56;2161098;82;20949;-81
2021/06/16 02:41:40;;;;;;;12.80;10.67;;;;;;;11.65;72.15;99091.27;2161322;82;20913;-81
2021/06/16 02:44:41;;;;;;;12.07;10.00;;;;;;;11.65;72.13;99083.42;2160884;82;21028;-80
2021/06/16 02:47:42;;;;;;;14.70;10.07;;;;;;;11.64;72.05;99089.51;2161119;82;21045;-80
2021/06/16 02:50:44;;;;;;;13.53;10.07;;;;;;;11.66;72.12;99085.60;2160985;82;21044;-81
2021/06/16 02:53:45;;;;;;;15.37;10.10;;;;;;;11.68;72.19;99086.50;2161042;82;20982;-81
2021/06/16 02:56:46;;;;;;;12.40;10.03;;;;;;;11.69;72.05;99081.28;2160902;82;20973;-81
2021/06/16 02:59:49;;;;;;;15.00;11.03;;;;;;;11.75;72.12;99086.58;2138716;82;20949;-80
2021/06/16 03:02:50;;;;;;;10.73;9.63;;;;;;;11.84;72.04;99088.45;2160870;82;20957;-81
2021/06/16 03:05:51;;;;;;;22.77;10.27;;;;;;;11.89;71.77;99091.99;2160831;82;20973;-82
2021/06/16 03:08:52;;;;;;;12.90;10.63;;;;;;;11.92;71.92;99099.88;2160955;82;21004;-82
2021/06/16 03:11:53;;;;;;;14.07;10.87;;;;;;;11.97;71.78;99092.95;2161006;82;20994;-81
2021/06/16 03:14:54;;;;;;;11.90;10.70;;;;;;;11.98;71.68;99089.91;2160807;82;21037;-82
2021/06/16 03:17:55;;;;;;;13.03;10.20;;;;;;;12.01;71.68;99096.47;2160889;82;20961;-82
2021/06/16 03:20:56;;;;;;;12.23;10.72;;;;;;;12.09;71.78;99098.73;2161042;82;20941;-82
2021/06/16 03:23:57;;;;;;;37.40;12.25;;;;;;;12.16;71.74;99098.39;2160939;82;20941;-80
2021/06/16 03:26:58;;;;;;;12.37;10.43;;;;;;;12.17;71.58;99100.15;2160884;82;20937;-79
2021/06/16 03:29:59;;;;;;;12.95;10.55;;;;;;;12.21;71.60;99105.86;2160953;82;20930;-81
2021/06/16 03:33:00;;;;;;;13.45;10.45;;;;;;;12.24;71.72;99101.96;2163154;82;21032;-81
2021/06/16 03:36:01;;;;;;;13.83;9.85;;;;;;;12.26;71.63;99098.92;2171079;82;20976;-81
2021/06/16 03:39:02;;;;;;;21.90;11.00;;;;;;;12.26;71.78;99097.19;2171000;82;21337;-81
2021/06/16 03:42:03;;;;;;;151.93;19.10;;;;;;;12.31;71.97;99098.53;2170627;82;20949;-79
2021/06/16 03:45:04;;;;;;;24.15;11.22;;;;;;;12.35;72.01;99099.01;2170183;82;21068;-78
2021/06/16 03:51:08;;;;;;;11.68;10.05;;;;;;;12.55;71.87;99105.28;2147783;82;20948;-82
2021/06/16 03:54:12;;;;;;;17.25;10.93;;;;;;;12.61;71.62;99101.41;2170854;82;20985;-80
2021/06/16 03:57:13;;;;;;;14.68;10.90;;;;;;;12.68;71.65;99106.26;2170866;82;21380;-81
2021/06/16 04:00:14;;;;;;;14.93;11.08;;;;;;;12.79;71.58;99094.55;2170683;82;20933;-81
2021/06/16 04:03:15;;;;;;;13.43;10.25;;;;;;;12.94;71.50;99107.75;2170541;82;21380;-80
2021/06/16 04:06:16;;;;;;;12.47;9.60;;;;;;;13.10;71.32;99100.89;2170646;82;21401;-81
2021/06/16 04:09:17;;;;;;;37.88;25.08;;;;;;;13.31;71.41;99105.84;2170659;82;20952;-81
2021/06/16 04:12:21;;;;;;;14.15;11.43;;;;;;;13.53;71.34;99100.27;2171036;82;21340;-81
2021/06/16 04:15:22;;;;;;;13.62;10.35;;;;;;;13.73;71.02;99096.84;2170867;82;20996;-82
2021/06/16 04:18:23;;;;;;;14.68;10.30;;;;;;;13.93;70.94;99097.36;2170796;82;20941;-80
2021/06/16 04:21:24;;;;;;;231.53;27.00;;;;;;;14.11;70.84;99099.59;2170657;82;20988;-81
2021/06/16 04:24:26;;;;;;;22.27;11.55;;;;;;;14.30;70.86;99109.24;2170603;82;21028;-81
2021/06/16 04:27:26;;;;;;;14.23;10.08;;;;;;;14.45;70.61;99107.97;2170399;82;20965;-81
2021/06/16 04:30:28;;;;;;;18.98;10.68;;;;;;;14.67;70.47;99106.22;2170729;82;20996;-82
2021/06/16 04:33:29;;;;;;;15.18;10.80;;;;;;;14.89;70.31;99105.36;2167161;82;21333;-81
2021/06/16 04:36:30;;;;;;;14.38;10.25;;;;;;;15.05;70.04;99113.22;2160112;82;20938;-80
2021/06/16 04:39:31;;;;;;;12.93;10.23;;;;;;;15.15;70.10;99111.00;2159662;82;20971;-81
2021/06/16 04:42:32;;;;;;;16.48;10.20;;;;;;;15.27;70.18;99117.55;2159560;82;20981;-79
2021/06/16 04:45:33;;;;;;;258.43;34.98;;;;;;;15.38;70.03;99121.02;2159571;82;21007;-79
2021/06/16 04:48:35;;;;;;;22.32;13.58;;;;;;;15.54;69.97;99115.27;2159941;82;21052;-79
2021/06/16 04:51:36;;;;;;;92.27;42.43;;;;;;;15.65;69.68;99112.22;2159172;82;20921;-80
2021/06/16 04:54:38;;;;;;;66.37;49.38;;;;;;;15.78;69.84;99109.96;2159435;82;21353;-80
2021/06/16 04:57:39;;;;;;;16.10;13.13;;;;;;;15.87;69.71;99108.59;2159245;82;20894;-80
2021/06/16 05:00:43;;;;;;;40.98;34.30;;;;;;;15.93;69.51;99116.47;2159147;82;21413;-79
2021/06/16 05:03:45;;;;;;;18.17;13.05;;;;;;;15.94;69.32;99113.39;2158661;82;20996;-79
2021/06/16 05:06:48;;;;;;;11.28;9.48;;;;;;;15.97;68.96;99106.80;2158293;82;21052;-80
2021/06/16 05:09:49;;;;;;;32.73;11.75;;;;;;;16.03;69.08;99105.88;2159944;82;21005;-80
2021/06/16 05:12:50;;;;;;;19.40;9.70;;;;;;;16.22;69.32;99111.47;2160680;82;20989;-81
2021/06/16 05:15:51;;;;;;;13.30;12.05;;;;;;;16.51;69.55;99107.34;2160149;82;21000;-79
2021/06/16 05:18:52;;;;;;;15.93;11.35;;;;;;;16.75;68.86;99108.92;2159759;82;21048;-79
2021/06/16 05:21:53;;;;;;;17.17;11.75;;;;;;;17.20;67.93;99112.88;2159857;82;21300;-80
2021/06/16 05:24:54;;;;;;;21.82;12.78;;;;;;;17.65;67.17;99111.95;2159146;82;20897;-79
2021/06/16 05:27:55;;;;;;;29.90;16.42;;;;;;;18.09;66.12;99119.33;2159748;82;20977;-78
2021/06/16 05:30:56;;;;;;;28.10;15.48;;;;;;;18.49;64.63;99122.73;2159750;82;21009;-80
2021/06/16 05:33:57;;;;;;;22.45;14.50;;;;;;;18.95;64.12;99120.23;2162135;82;21004;-77
2021/06/16 05:36:59;;;;;;;103.02;18.75;;;;;;;19.36;62.54;99125.67;2167391;82;21372;-78
2021/06/16 05:39:59;;;;;;;66.37;15.90;;;;;;;19.67;61.51;99124.64;2167767;82;21329;-81
2021/06/16 05:43:00;;;;;;;28.27;13.45;;;;;;;19.98;61.03;99129.33;2167788;82;20948;-81
2021/06/16 05:46:01;;;;;;;20.60;11.97;;;;;;;20.22;60.39;99134.55;2168071;82;20997;-80
2021/06/16 05:49:03;;;;;;;16.00;11.70;;;;;;;20.45;59.68;99134.92;2167852;82;21187;-81
2021/06/16 05:52:04;;;;;;;19.35;11.85;;;;;;;20.68;58.96;99134.38;2167581;82;21341;-80
2021/06/16 05:55:06;;;;;;;18.37;13.83;;;;;;;20.90;58.35;99144.03;2168110;82;21155;-81
2021/06/16 05:58:07;;;;;;;21.90;13.25;;;;;;;21.11;58.66;99136.84;2167746;82;21079;-80
2021/06/16 06:01:08;;;;;;;21.77;14.43;;;;;;;21.30;58.30;99139.46;2168219;82;20963;-81
2021/06/16 06:04:10;;;;;;;14.63;12.00;;;;;;;21.52;57.28;99142.86;2168141;82;20973;-80
2021/06/16 06:07:12;;;;;;;22.65;12.58;;;;;;;21.74;56.16;99140.50;2168007;82;20953;-79
2021/06/16 06:10:13;;;;;;;53.05;14.10;;;;;;;21.97;55.14;99145.15;2167730;82;20976;-81
2021/06/16 06:13:14;;;;;;;25.60;12.05;;;;;;;22.20;54.30;99151.55;2167796;82;20980;-80
2021/06/16 06:16:15;;;;;;;19.48;11.00;;;;;;;22.52;53.62;99144.36;2167227;82;21044;-80
2021/06/16 06:19:17;;;;;;;17.37;11.45;;;;;;;22.81;53.14;99145.69;2167211;82;20953;-80
2021/06/16 06:22:18;;;;;;;16.77;10.08;;;;;;;23.18;52.05;99145.78;2167761;82;20937;-80
2021/06/16 06:25:20;;;;;;;13.75;9.48;;;;;;;23.43;51.39;99156.02;2167825;82;20936;-81
2021/06/16 06:28:22;;;;;;;15.72;8.95;;;;;;;23.68;50.24;99152.51;2167829;82;20921;-82
2021/06/16 06:31:23;;;;;;;11.38;9.00;;;;;;;23.93;48.97;99153.34;2167822;82;21301;-83
2021/06/16 06:34:24;;;;;;;11.55;8.43;;;;;;;24.05;48.67;99150.22;2167698;82;20988;-81
2021/06/16 06:37:25;;;;;;;10.30;8.05;;;;;;;24.31;48.10;99149.73;2167488;82;20989;-79
2021/06/16 06:40:26;;;;;;;15.32;12.47;;;;;;;24.59;46.83;99149.52;2167935;82;20936;-80
2021/06/16 06:43:27;;;;;;;10.53;7.15;;;;;;;24.82;45.90;99142.77;2168014;82;21009;-80
2021/06/16 06:46:29;;;;;;;24.70;9.35;;;;;;;25.02;44.18;99147.31;2167192;82;21004;-80
2021/06/16 06:49:30;;;;;;;12.40;8.20;;;;;;;25.15;44.25;99146.36;2167867;82;21376;-81
2021/06/16 06:52:34;;;;;;;92.65;14.03;;;;;;;25.40;44.12;99143.91;2167665;82;20913;-80
2021/06/16 06:55:35;;;;;;;10.55;7.60;;;;;;;25.63;43.13;99146.03;2167617;82;20989;-82
2021/06/16 06:58:37;;;;;;;11.25;7.72;;;;;;;25.80;42.87;99141.30;2167687;82;20994;-80
2021/06/16 07:01:39;;;;;;;48.50;10.15;;;;;;;25.99;43.12;99138.17;2167448;82;20981;-80
2021/06/16 07:04:43;;;;;;;17.20;7.80;;;;;;;26.21;42.27;99134.06;2127101;82;21416;-78
2021/06/16 07:07:44;;;;;;;10.23;6.83;;;;;;;26.52;41.88;99133.50;2167447;82;20989;-79
2021/06/16 07:10:45;;;;;;;26.90;8.45;;;;;;;26.62;40.68;99134.78;2167337;82;21001;-78
2021/06/16 07:13:47;;;;;;;9.90;6.83;;;;;;;26.58;39.77;99135.41;2166851;82;21045;-80
2021/06/16 07:16:49;;;;;;;7.67;6.87;;;;;;;26.64;39.34;99135.58;2167364;82;20980;-81
2021/06/16 07:19:50;;;;;;;563.25;64.20;;;;;;;26.90;39.51;99132.51;2166679;82;20948;-80
2021/06/16 07:22:51;;;;;;;13.28;7.33;;;;;;;27.16;39.20;99133.03;2166252;82;20964;-79
2021/06/16 07:25:52;;;;;;;8.23;7.30;;;;;;;27.45;38.31;99134.20;2166684;82;20941;-81
2021/06/16 07:28:53;;;;;;;8.78;7.03;;;;;;;27.63;37.78;99134.61;2167014;82;21364;-79
2021/06/16 07:31:54;;;;;;;13.15;7.25;;;;;;;27.71;38.21;99128.84;2166914;82;20921;-82
2021/06/16 07:34:55;;;;;;;32.20;9.43;;;;;;;27.88;38.32;99130.17;2169013;82;21008;-81
2021/06/16 07:37:56;;;;;;;9.75;6.35;;;;;;;28.11;37.77;99132.94;2170052;82;20944;-80
2021/06/16 07:40:57;;;;;;;8.68;6.35;;;;;;;28.27;37.64;99135.20;2170370;82;20909;-79
2021/06/16 07:43:58;;;;;;;7.33;5.67;;;;;;;28.35;36.67;99134.29;2170099;82;21106;-80
2021/06/16 07:46:59;;;;;;;8.20;6.72;;;;;;;28.44;35.95;99135.59;2170000;82;21019;-81
2021/06/16 07:50:01;;;;;;;12.55;6.12;;;;;;;28.61;36.79;99134.63;2169992;82;20992;-82
2021/06/16 07:53:02;;;;;;;9.23;6.47;;;;;;;28.70;35.54;99142.20;2169566;82;20937;-80
2021/06/16 07:56:04;;;;;;;6.70;5.72;;;;;;;28.78;36.20;99141.28;2169873;82;20976;-79
2021/06/16 07:59:06;;;;;;;6.17;5.55;;;;;;;29.07;33.73;99135.09;2169935;82;21055;-81
2021/06/16 08:02:07;;;;;;;8.13;5.67;;;;;;;29.18;35.42;99138.02;2170403;82;20992;-82
2021/06/16 08:05:09;;;;;;;7.87;6.20;;;;;;;29.20;34.50;99135.23;2169943;82;20949;-82
2021/06/16 08:08:11;;;;;;;7.87;6.15;;;;;;;29.29;34.17;99136.51;2169897;82;20992;-81
2021/06/16 08:11:13;;;;;;;7.80;5.58;;;;;;;29.35;34.51;99137.48;2170071;82;20979;-82
2021/06/16 08:14:16;;;;;;;9.58;5.97;;;;;;;29.51;34.30;99141.52;2170281;82;21417;-82
2021/06/16 08:17:17;;;;;;;11.28;6.03;;;;;;;29.57;33.62;99139.32;2170355;82;21004;-84
2021/06/16 08:20:18;;;;;;;23.45;7.15;;;;;;;29.47;33.30;99143.02;2170521;82;21016;-81
2021/06/16 08:23:22;;;;;;;7.85;5.75;;;;;;;29.27;32.81;99146.01;2170406;82;21580;-83
2021/06/16 08:26:23;;;;;;;28.57;7.15;;;;;;;29.06;33.54;99145.94;2169997;82;20928;-82
2021/06/16 08:29:24;;;;;;;7.40;5.72;;;;;;;29.22;33.84;99143.20;2169566;82;20976;-82
2021/06/16 08:32:27;;;;;;;6.35;5.75;;;;;;;29.48;33.13;99147.95;2170392;82;20958;-82
2021/06/16 08:35:28;;;;;;;9.78;5.65;;;;;;;29.46;32.83;99148.48;2168487;82;20969;-81
2021/06/16 08:38:29;;;;;;;9.78;5.58;;;;;;;29.47;32.68;99148.39;2167380;82;20936;-82
2021/06/16 08:41:30;;;;;;;10.43;6.00;;;;;;;29.38;32.46;99145.36;2167226;82;20985;-84
2021/06/16 08:44:31;;;;;;;9.03;6.10;;;;;;;29.32;32.81;99149.28;2167350;82;21206;-82
2021/06/16 08:47:34;;;;;;;7.17;6.22;;;;;;;29.16;32.42;99143.96;2167282;82;21623;-82
2021/06/16 08:50:38;;;;;;;7.25;5.58;;;;;;;28.75;33.35;99152.20;2167273;82;21202;-79
2021/06/16 08:53:40;;;;;;;10.68;6.30;;;;;;;28.98;33.38;99149.55;2167122;82;20976;-80
2021/06/16 08:56:41;;;;;;;8.55;6.67;;;;;;;29.03;33.17;99148.80;2167749;82;20902;-83
2021/06/16 08:59:42;;;;;;;52.88;12.63;;;;;;;28.72;33.61;99153.24;2167547;82;21008;-84
2021/06/16 09:02:47;;;;;;;8.73;6.30;;;;;;;28.46;34.27;99153.34;2167121;82;21364;-80
2021/06/16 09:05:48;;;;;;;10.55;6.33;;;;;;;28.15;34.22;99157.31;2167147;82;21008;-82
2021/06/16 09:08:50;;;;;;;8.58;6.03;;;;;;;28.06;34.83;99156.47;2167563;82;21000;-82
2021/06/16 09:11:51;;;;;;;12.05;6.65;;;;;;;28.17;34.73;99158.09;2167923;82;21000;-82
2021/06/16 09:14:52;;;;;;;6.65;5.80;;;;;;;28.25;34.89;99158.57;2167275;82;21076;-80
2021/06/16 09:17:53;;;;;;;9.88;6.45;;;;;;;28.43;35.21;99160.23;2168014;82;20992;-83
2021/06/16 09:20:54;;;;;;;13.60;8.23;;;;;;;28.64;34.72;99156.84;2168254;82;20972;-81
2021/06/16 09:23:55;;;;;;;14.43;7.10;;;;;;;28.83;34.88;99160.69;2167831;82;20909;-82
2021/06/16 09:26:56;;;;;;;12.05;6.67;;;;;;;29.04;34.33;99167.53;2167401;82;20956;-81
2021/06/16 09:29:57;;;;;;;7.50;6.25;;;;;;;29.13;34.22;99160.27;2167654;82;20988;-82
2021/06/16 09:32:58;;;;;;;8.80;6.40;;;;;;;29.13;33.51;99160.27;2166827;82;21032;-81
2021/06/16 09:35:59;;;;;;;8.60;6.90;;;;;;;28.90;33.17;99167.95;2173122;82;21036;-80
2021/06/16 09:39:02;;;;;;;9.48;6.65;;;;;;;28.51;33.71;99169.20;2175680;82;20912;-81
2021/06/16 09:42:02;;;;;;;204.28;22.95;;;;;;;28.53;33.84;99165.95;2175801;82;21356;-80
2021/06/16 09:45:04;;;;;;;7.20;6.22;;;;;;;28.92;34.28;99166.90;2175983;82;21008;-82
2021/06/16 09:48:05;;;;;;;10.00;7.33;;;;;;;29.42;33.59;99162.56;2176343;82;21698;-81
2021/06/16 09:51:06;;;;;;;7.70;6.80;;;;;;;29.48;33.43;99160.05;2176101;82;20998;-81
2021/06/16 09:54:21;;;;;;;6.53;5.80;;;;;;;29.87;32.97;99170.67;2176569;82;20976;-81
2021/06/16 09:57:19;;;;;;;9.25;6.00;;;;;;;30.31;33.14;99164.74;2176002;82;20940;-82
2021/06/16 10:00:19;;;;;;;9.83;6.87;;;;;;;30.19;31.94;99164.66;2176687;82;20972;-81
2021/06/16 10:03:21;;;;;;;6.83;6.22;;;;;;;30.39;31.56;99164.28;2176973;82;20992;-80
2021/06/16 10:06:22;;;;;;;8.20;6.15;;;;;;;30.55;31.34;99166.85;2176419;82;20977;-81
2021/06/16 10:09:25;;;;;;;;;;;;;;;30.69;31.67;99160.98;2179310;82;21043;-81
2021/06/16 10:12:25;;;;;;;7.45;6.08;;;;;;;30.59;30.91;99163.03;2176401;82;20124;-81
2021/06/16 10:15:27;;;;;;;7.40;6.70;;;;;;;30.25;31.37;99159.75;2176261;82;21003;-80
2021/06/16 10:18:28;;;;;;;6.92;6.22;;;;;;;30.15;31.02;99151.88;2176500;82;20909;-83
2021/06/16 10:21:29;;;;;;;8.65;6.65;;;;;;;30.03;31.94;99155.34;2176447;82;20968;-81
2021/06/16 10:24:30;;;;;;;6.37;5.80;;;;;;;30.09;31.08;99156.30;2176421;82;20964;-81
2021/06/16 10:27:31;;;;;;;10.60;6.75;;;;;;;29.68;31.32;99150.29;2176584;82;20968;-80
2021/06/16 10:30:42;;;;;;;6.80;6.20;;;;;;;29.37;32.06;99151.70;2176389;82;20968;-80
2021/06/16 10:33:41;;;;;;;10.30;6.87;;;;;;;29.36;32.46;99152.18;2176095;82;20952;-80
2021/06/16 10:36:41;;;;;;;33.85;8.98;;;;;;;29.44;32.42;99150.41;2170826;82;20972;-81
2021/06/16 10:39:43;;;;;;;8.00;6.78;;;;;;;29.19;32.95;99149.63;2170383;82;20999;-80
2021/06/16 10:42:44;;;;;;;21.02;8.05;;;;;;;28.85;33.61;99150.75;2170383;82;20933;-82
2021/06/16 10:45:45;;;;;;;14.75;7.35;;;;;;;28.71;34.15;99154.67;2170606;81;21035;-82
2021/06/16 10:48:46;;;;;;;12.10;7.45;;;;;;;28.66;34.37;99158.09;2170448;82;21092;-82
2021/06/16 10:51:47;;;;;;;12.18;6.75;;;;;;;28.68;34.58;99157.05;2170319;82;21456;-81
2021/06/16 10:54:49;;;;;;;9.83;8.70;;;;;;;28.61;34.51;99161.05;2170625;82;20941;-81
2021/06/16 10:57:50;;;;;;;10.53;7.20;;;;;;;28.57;34.09;99161.27;2170375;82;21000;-81
2021/06/16 11:00:51;;;;;;;10.58;7.00;;;;;;;28.49;35.01;99161.23;2169678;82;21016;-81
2021/06/16 11:03:53;;;;;;;8.98;6.95;;;;;;;28.51;34.72;99168.72;2170190;82;20973;-81
2021/06/16 11:06:55;;;;;;;8.38;6.70;;;;;;;28.53;34.83;99161.45;2170175;82;21361;-81
2021/06/16 11:09:56;;;;;;;9.33;7.03;;;;;;;28.56;34.39;99164.44;2170198;82;21407;-80
2021/06/16 11:12:57;;;;;;;6.78;6.08;;;;;;;28.60;34.33;99167.34;2170437;82;21321;-80
2021/06/16 11:15:58;;;;;;;7.70;6.90;;;;;;;28.62;36.68;99169.97;2170049;82;21059;-80
2021/06/16 11:18:59;;;;;;;63.15;10.93;;;;;;;28.42;35.64;99174.61;2170370;82;20945;-79
2021/06/16 11:22:00;;;;;;;7.37;6.67;;;;;;;28.35;35.43;99171.88;2169781;82;20948;-81
2021/06/16 11:25:01;;;;;;;27.05;7.70;;;;;;;28.35;35.24;99168.33;2170191;82;21253;-79
2021/06/16 11:28:08;;;;;;;24.18;7.05;;;;;;;28.31;36.26;99170.31;2170093;82;20981;-80
2021/06/16 11:31:10;;;;;;;9.70;6.62;;;;;;;28.30;36.41;99168.58;2170235;82;20944;-80
2021/06/16 11:34:11;;;;;;;9.53;6.70;;;;;;;28.27;35.44;99167.41;2170068;82;21015;-81
2021/06/16 11:37:12;;;;;;;12.95;6.50;;;;;;;28.17;35.87;99167.02;2170297;82;20985;-80
2021/06/16 11:40:13;;;;;;;7.42;6.72;;;;;;;28.23;35.81;99164.50;2170558;82;20996;-81
2021/06/16 11:43:14;;;;;;;8.50;6.58;;;;;;;28.34;35.78;99163.43;2170604;82;20909;-81
2021/06/16 11:46:16;;;;;;;22.22;8.03;;;;;;;28.56;35.11;99161.75;2170427;82;21368;-82
2021/06/16 11:49:17;;;;;;;9.03;6.53;;;;;;;28.73;35.18;99162.17;2170432;82;20937;-80
2021/06/16 11:52:18;;;;;;;7.83;7.03;;;;;;;28.88;34.90;99155.94;2170001;82;20995;-78
2021/06/16 11:55:20;;;;;;;183.65;22.02;;;;;;;29.03;35.20;99159.55;2169952;82;20921;-79
2021/06/16 11:58:21;;;;;;;65.75;10.98;;;;;;;29.04;34.98;99158.60;2169679;82;21321;-79
2021/06/16 12:01:22;;;;;;;8.75;6.42;;;;;;;29.11;34.87;99159.97;2170114;82;20960;-81
2021/06/16 12:04:23;;;;;;;11.63;6.87;;;;;;;29.13;33.95;99157.58;2170261;82;21384;-81
2021/06/16 12:07:24;;;;;;;10.10;6.35;;;;;;;29.26;33.43;99149.66;2170549;82;20925;-79
2021/06/16 12:10:25;;;;;;;9.35;6.25;;;;;;;29.34;33.62;99151.88;2170259;82;21448;-79
2021/06/16 12:13:27;;;;;;;7.15;6.40;;;;;;;29.50;33.36;99150.55;2170365;82;20972;-80
2021/06/16 12:16:28;;;;;;;13.58;6.70;;;;;;;29.64;32.82;99147.87;2169762;82;21016;-78
2021/06/16 12:19:29;;;;;;;6.90;5.97;;;;;;;29.60;33.62;99145.86;2169888;82;20941;-78
2021/06/16 12:22:31;;;;;;;9.53;6.80;;;;;;;29.63;32.56;99149.70;2169425;82;21324;-79
2021/06/16 12:25:31;;;;;;;9.05;8.15;;;;;;;29.52;32.50;99142.77;2169051;82;20917;-79
2021/06/16 12:28:32;;;;;;;8.73;7.05;;;;;;;29.34;32.81;99139.31;2169257;82;21340;-79
2021/06/16 12:31:40;;;;;;;7.85;6.30;;;;;;;29.37;32.96;99138.25;2169159;82;20984;-79
2021/06/16 12:37:38;;;;;;;29.57;8.70;;;;;;;29.04;34.06;99125.01;2144625;82;21678;-79
2021/06/16 12:40:40;;;;;;;11.25;6.70;;;;;;;28.93;35.01;99135.05;2167280;82;21397;-79
2021/06/16 12:43:41;;;;;;;7.80;6.90;;;;;;;28.92;35.23;99129.77;2167150;82;21376;-79
2021/06/16 12:46:42;;;;;;;7.60;6.90;;;;;;;29.04;35.55;99122.32;2166458;82;21103;-79
2021/06/16 12:49:43;;;;;;;7.25;6.53;;;;;;;29.23;35.71;99125.64;2166998;82;21372;-78
2021/06/16 12:52:44;;;;;;;11.43;6.70;;;;;;;29.16;35.15;99129.66;2167112;82;20970;-79
2021/06/16 12:55:46;;;;;;;8.50;6.87;;;;;;;29.15;35.65;99123.89;2167468;82;21166;-79
2021/06/16 12:58:47;;;;;;;10.32;6.90;;;;;;;29.29;34.62;99129.78;2167278;82;20988;-80
2021/06/16 13:01:48;;;;;;;9.15;6.60;;;;;;;29.22;35.57;99131.11;2167462;82;21024;-79
2021/06/16 13:04:50;;;;;;;12.20;7.50;;;;;;;29.20;35.37;99124.96;2167485;82;21341;-79
2021/06/16 13:07:51;;;;;;;11.63;7.58;;;;;;;29.27;35.29;99121.81;2167219;82;21345;-79
2021/06/16 13:10:52;;;;;;;17.57;7.55;;;;;;;29.36;35.84;99124.42;2167173;82;20988;-79
2021/06/16 13:13:53;;;;;;;9.33;7.72;;;;;;;29.32;35.99;99118.84;2167445;82;20913;-80
2021/06/16 13:16:54;;;;;;;27.77;9.80;;;;;;;29.29;35.39;99117.69;2167530;82;20996;-81
2021/06/16 13:19:55;;;;;;;8.35;7.45;;;;;;;29.34;35.43;99119.14;2167782;82;20997;-78
2021/06/16 13:22:56;;;;;;;17.17;8.08;;;;;;;29.26;35.46;99121.91;2168099;82;20968;-81
2021/06/16 13:25:57;;;;;;;10.90;7.85;;;;;;;29.15;35.52;99111.80;2168416;82;20905;-79
2021/06/16 13:28:58;;;;;;;8.50;7.50;;;;;;;29.13;36.48;99114.58;2168333;82;21031;-80
2021/06/16 13:31:59;;;;;;;11.93;7.25;;;;;;;29.57;35.53;99119.15;2168028;82;20933;-79
2021/06/16 13:35:00;;;;;;;8.58;7.65;;;;;;;29.39;34.78;99116.17;2168434;80;20925;-79
2021/06/16 13:38:01;;;;;;;9.10;7.53;;;;;;;29.26;35.30;99123.25;2170690;82;20913;-78
2021/06/16 13:41:02;;;;;;;9.03;7.10;;;;;;;29.01;34.99;99121.16;2170437;82;20997;-79
2021/06/16 13:44:03;;;;;;;13.05;8.48;;;;;;;28.95;35.42;99122.38;2170224;82;20960;-79
2021/06/16 13:47:05;;;;;;;9.60;7.10;;;;;;;28.83;36.29;99115.91;2170535;82;21092;-79
2021/06/16 13:50:05;;;;;;;12.63;7.90;;;;;;;28.79;36.14;99112.11;2170373;82;21320;-79
2021/06/16 13:53:08;;;;;;;7.92;7.17;;;;;;;28.64;35.64;99112.53;2170426;82;20925;-79
2021/06/16 13:56:11;;;;;;;8.93;8.03;;;;;;;28.58;35.60;99111.98;2170518;82;20921;-78
2021/06/16 13:59:12;;;;;;;8.23;7.37;;;;;;;28.51;35.40;99115.49;2171148;82;21686;-79
2021/06/16 14:02:13;;;;;;;7.97;7.17;;;;;;;28.54;35.81;99112.63;2171253;82;20949;-78
2021/06/16 14:05:15;;;;;;;7.87;6.97;;;;;;;28.72;35.39;99108.05;2169964;82;20976;-79
2021/06/16 14:08:16;;;;;;;10.98;7.30;;;;;;;28.90;35.24;99098.09;2170409;82;21685;-79
2021/06/16 14:11:17;;;;;;;9.88;6.78;;;;;;;28.82;34.58;99103.40;2170773;82;20957;-79